sensor_id;sensor_type;location;lat;lon;timestamp;P1;durP1;ratioP1;P2;durP2;ratioP2
45043;SDS011;30784;48.490;9.688;2022-11-24T00:01:09;9.15;;;1.23;;
45043;SDS011;30784;48.490;9.688;2022-11-24T00:03:36;12.27;;;1.48;;
45043;SDS011;30784;48.490;9.688;2022-11-24T00:06:03;6.80;;;1.15;;
45043;SDS011;30784;48.490;9.688;2022-11-24T00:08:34;10.60;;;1.70;;
45043;SDS011;30784;48.490;9.688;2022-11-24T00:11:19;10.48;;;2.15;;
45043;SDS011;30784;48.490;9.688;2022-11-24T00:13:46;6.63;;;1.30;;
45043;SDS011;30784;48.490;9.688;2022-11-24T00:16:13;11.05;;;1.80;;
45043;SDS011;30784;48.490;9.688;2022-11-24T00:18:42;6.72;;;1.23;;
45043;SDS011;30784;48.490;9.688;2022-11-24T00:21:09;8.10;;;1.42;;
45043;SDS011;30784;48.490;9.688;2022-11-24T00:23:35;10.05;;;1.40;;
45043;SDS011;30784;48.490;9.688;2022-11-24T00:26:02;7.82;;;1.20;;
45043;SDS011;30784;48.490;9.688;2022-11-24T00:28:32;7.65;;;1.30;;
45043;SDS011;30784;48.490;9.688;2022-11-24T00:30:59;11.75;;;2.13;;
45043;SDS011;30784;48.490;9.688;2022-11-24T00:33:25;8.60;;;1.92;;
45043;SDS011;30784;48.490;9.688;2022-11-24T00:35:57;10.10;;;1.23;;
45043;SDS011;30784;48.490;9.688;2022-11-24T00:38:24;10.80;;;1.85;;
45043;SDS011;30784;48.490;9.688;2022-11-24T00:40:50;8.25;;;1.23;;
45043;SDS011;30784;48.490;9.688;2022-11-24T00:43:17;9.30;;;1.17;;
45043;SDS011;30784;48.490;9.688;2022-11-24T00:45:43;12.73;;;1.30;;
45043;SDS011;30784;48.490;9.688;2022-11-24T00:48:08;11.25;;;1.38;;
45043;SDS011;30784;48.490;9.688;2022-11-24T00:50:34;14.07;;;1.45;;
45043;SDS011;30784;48.490;9.688;2022-11-24T00:53:00;7.43;;;1.40;;
45043;SDS011;30784;48.490;9.688;2022-11-24T00:55:25;8.02;;;1.33;;
45043;SDS011;30784;48.490;9.688;2022-11-24T00:57:51;8.93;;;1.40;;
45043;SDS011;30784;48.490;9.688;2022-11-24T01:00:17;11.68;;;1.73;;
45043;SDS011;30784;48.490;9.688;2022-11-24T01:02:42;9.77;;;1.20;;
45043;SDS011;30784;48.490;9.688;2022-11-24T01:05:08;6.10;;;1.23;;
45043;SDS011;30784;48.490;9.688;2022-11-24T01:07:34;6.55;;;1.17;;
45043;SDS011;30784;48.490;9.688;2022-11-24T01:09:59;9.13;;;1.10;;
45043;SDS011;30784;48.490;9.688;2022-11-24T01:12:25;7.78;;;1.20;;
45043;SDS011;30784;48.490;9.688;2022-11-24T01:14:51;6.68;;;1.25;;
45043;SDS011;30784;48.490;9.688;2022-11-24T01:17:16;7.97;;;1.25;;
45043;SDS011;30784;48.490;9.688;2022-11-24T01:19:42;12.15;;;1.42;;
45043;SDS011;30784;48.490;9.688;2022-11-24T01:22:07;7.43;;;1.55;;
45043;SDS011;30784;48.490;9.688;2022-11-24T01:24:33;13.75;;;4.32;;
45043;SDS011;30784;48.490;9.688;2022-11-24T01:26:59;11.20;;;4.00;;
45043;SDS011;30784;48.490;9.688;2022-11-24T01:29:24;14.07;;;3.85;;
45043;SDS011;30784;48.490;9.688;2022-11-24T01:31:50;11.88;;;1.92;;
45043;SDS011;30784;48.490;9.688;2022-11-24T01:34:16;10.25;;;1.52;;
45043;SDS011;30784;48.490;9.688;2022-11-24T01:36:41;7.25;;;1.33;;
45043;SDS011;30784;48.490;9.688;2022-11-24T01:39:07;7.38;;;1.33;;
45043;SDS011;30784;48.490;9.688;2022-11-24T01:41:33;8.27;;;1.23;;
45043;SDS011;30784;48.490;9.688;2022-11-24T01:43:59;5.40;;;1.02;;
45043;SDS011;30784;48.490;9.688;2022-11-24T01:46:37;7.03;;;1.10;;
45043;SDS011;30784;48.490;9.688;2022-11-24T01:49:43;7.90;;;1.35;;
45043;SDS011;30784;48.490;9.688;2022-11-24T01:52:37;5.15;;;0.95;;
45043;SDS011;30784;48.490;9.688;2022-11-24T01:55:08;6.22;;;1.02;;
45043;SDS011;30784;48.490;9.688;2022-11-24T01:57:49;6.75;;;1.00;;
45043;SDS011;30784;48.490;9.688;2022-11-24T02:00:21;9.77;;;1.20;;
45043;SDS011;30784;48.490;9.688;2022-11-24T02:02:46;6.60;;;1.10;;
45043;SDS011;30784;48.490;9.688;2022-11-24T02:05:17;7.40;;;1.30;;
45043;SDS011;30784;48.490;9.688;2022-11-24T02:07:50;8.15;;;0.95;;
45043;SDS011;30784;48.490;9.688;2022-11-24T02:10:19;8.13;;;0.90;;
45043;SDS011;30784;48.490;9.688;2022-11-24T02:12:45;5.93;;;0.90;;
45043;SDS011;30784;48.490;9.688;2022-11-24T02:15:13;5.28;;;0.93;;
45043;SDS011;30784;48.490;9.688;2022-11-24T02:17:40;7.60;;;0.90;;
45043;SDS011;30784;48.490;9.688;2022-11-24T02:20:09;5.55;;;1.02;;
45043;SDS011;30784;48.490;9.688;2022-11-24T02:28:07;7.40;;;1.05;;
45043;SDS011;30784;48.490;9.688;2022-11-24T02:30:38;9.40;;;1.10;;
45043;SDS011;30784;48.490;9.688;2022-11-24T02:33:03;5.45;;;0.75;;
45043;SDS011;30784;48.490;9.688;2022-11-24T02:35:29;6.18;;;1.58;;
45043;SDS011;30784;48.490;9.688;2022-11-24T02:37:55;6.28;;;0.90;;
45043;SDS011;30784;48.490;9.688;2022-11-24T02:40:22;5.43;;;0.77;;
45043;SDS011;30784;48.490;9.688;2022-11-24T02:42:53;8.88;;;1.20;;
45043;SDS011;30784;48.490;9.688;2022-11-24T02:45:22;7.20;;;1.00;;
45043;SDS011;30784;48.490;9.688;2022-11-24T02:47:48;4.95;;;0.88;;
45043;SDS011;30784;48.490;9.688;2022-11-24T02:50:14;5.28;;;0.77;;
45043;SDS011;30784;48.490;9.688;2022-11-24T02:52:40;5.95;;;0.82;;
45043;SDS011;30784;48.490;9.688;2022-11-24T02:55:05;7.55;;;1.17;;
45043;SDS011;30784;48.490;9.688;2022-11-24T02:57:31;5.70;;;1.02;;
45043;SDS011;30784;48.490;9.688;2022-11-24T02:59:57;7.22;;;0.90;;
45043;SDS011;30784;48.490;9.688;2022-11-24T03:02:22;7.63;;;1.20;;
45043;SDS011;30784;48.490;9.688;2022-11-24T03:04:48;23.90;;;7.95;;
45043;SDS011;30784;48.490;9.688;2022-11-24T03:07:13;16.15;;;4.93;;
45043;SDS011;30784;48.490;9.688;2022-11-24T03:09:39;11.13;;;2.20;;
45043;SDS011;30784;48.490;9.688;2022-11-24T03:12:05;8.30;;;1.40;;
45043;SDS011;30784;48.490;9.688;2022-11-24T03:14:31;8.02;;;1.13;;
45043;SDS011;30784;48.490;9.688;2022-11-24T03:16:56;7.70;;;1.00;;
45043;SDS011;30784;48.490;9.688;2022-11-24T03:19:22;7.75;;;1.10;;
45043;SDS011;30784;48.490;9.688;2022-11-24T03:21:47;9.23;;;1.55;;
45043;SDS011;30784;48.490;9.688;2022-11-24T03:24:13;7.22;;;1.30;;
45043;SDS011;30784;48.490;9.688;2022-11-24T03:26:38;6.35;;;1.10;;
45043;SDS011;30784;48.490;9.688;2022-11-24T03:29:05;7.72;;;1.38;;
45043;SDS011;30784;48.490;9.688;2022-11-24T03:31:31;6.65;;;1.00;;
45043;SDS011;30784;48.490;9.688;2022-11-24T03:33:57;6.63;;;1.33;;
45043;SDS011;30784;48.490;9.688;2022-11-24T03:36:22;7.05;;;1.10;;
45043;SDS011;30784;48.490;9.688;2022-11-24T03:38:48;5.75;;;1.23;;
45043;SDS011;30784;48.490;9.688;2022-11-24T03:41:13;8.10;;;1.13;;
45043;SDS011;30784;48.490;9.688;2022-11-24T03:43:39;7.15;;;1.42;;
45043;SDS011;30784;48.490;9.688;2022-11-24T03:46:04;7.78;;;2.28;;
45043;SDS011;30784;48.490;9.688;2022-11-24T03:48:30;8.95;;;1.50;;
45043;SDS011;30784;48.490;9.688;2022-11-24T03:50:56;7.18;;;1.10;;
45043;SDS011;30784;48.490;9.688;2022-11-24T03:53:24;6.10;;;1.13;;
45043;SDS011;30784;48.490;9.688;2022-11-24T03:55:51;6.32;;;1.33;;
45043;SDS011;30784;48.490;9.688;2022-11-24T03:58:17;6.57;;;1.35;;
45043;SDS011;30784;48.490;9.688;2022-11-24T04:00:43;10.65;;;2.75;;
45043;SDS011;30784;48.490;9.688;2022-11-24T04:03:09;10.18;;;2.33;;
45043;SDS011;30784;48.490;9.688;2022-11-24T04:05:34;7.38;;;1.70;;
45043;SDS011;30784;48.490;9.688;2022-11-24T04:08:00;7.20;;;1.38;;
45043;SDS011;30784;48.490;9.688;2022-11-24T04:10:27;7.72;;;1.38;;
45043;SDS011;30784;48.490;9.688;2022-11-24T04:12:54;5.63;;;1.42;;
45043;SDS011;30784;48.490;9.688;2022-11-24T04:15:19;6.78;;;1.70;;
45043;SDS011;30784;48.490;9.688;2022-11-24T04:17:46;7.95;;;1.50;;
45043;SDS011;30784;48.490;9.688;2022-11-24T04:20:12;7.07;;;1.45;;
45043;SDS011;30784;48.490;9.688;2022-11-24T04:22:39;6.55;;;1.08;;
45043;SDS011;30784;48.490;9.688;2022-11-24T04:25:05;5.30;;;1.05;;
45043;SDS011;30784;48.490;9.688;2022-11-24T04:27:32;6.35;;;1.30;;
45043;SDS011;30784;48.490;9.688;2022-11-24T04:29:58;6.53;;;1.15;;
45043;SDS011;30784;48.490;9.688;2022-11-24T04:32:24;6.55;;;1.08;;
45043;SDS011;30784;48.490;9.688;2022-11-24T04:34:49;5.70;;;1.00;;
45043;SDS011;30784;48.490;9.688;2022-11-24T04:37:15;3.22;;;0.68;;
45043;SDS011;30784;48.490;9.688;2022-11-24T04:39:40;2.53;;;0.60;;
45043;SDS011;30784;48.490;9.688;2022-11-24T04:42:06;4.97;;;0.80;;
45043;SDS011;30784;48.490;9.688;2022-11-24T04:44:32;5.75;;;0.82;;
45043;SDS011;30784;48.490;9.688;2022-11-24T04:46:57;5.38;;;0.88;;
45043;SDS011;30784;48.490;9.688;2022-11-24T04:49:23;4.65;;;0.85;;
45043;SDS011;30784;48.490;9.688;2022-11-24T04:51:48;3.67;;;0.85;;
45043;SDS011;30784;48.490;9.688;2022-11-24T04:54:14;5.82;;;1.30;;
45043;SDS011;30784;48.490;9.688;2022-11-24T04:56:40;8.80;;;1.92;;
45043;SDS011;30784;48.490;9.688;2022-11-24T04:59:06;8.30;;;1.90;;
45043;SDS011;30784;48.490;9.688;2022-11-24T05:01:32;7.65;;;1.60;;
45043;SDS011;30784;48.490;9.688;2022-11-24T05:03:58;7.00;;;1.25;;
45043;SDS011;30784;48.490;9.688;2022-11-24T05:06:23;6.25;;;1.20;;
45043;SDS011;30784;48.490;9.688;2022-11-24T05:08:50;30.90;;;1.63;;
45043;SDS011;30784;48.490;9.688;2022-11-24T05:11:16;19.38;;;1.35;;
45043;SDS011;30784;48.490;9.688;2022-11-24T05:13:42;5.80;;;1.30;;
45043;SDS011;30784;48.490;9.688;2022-11-24T05:16:08;6.30;;;1.00;;
45043;SDS011;30784;48.490;9.688;2022-11-24T05:18:34;5.03;;;1.27;;
45043;SDS011;30784;48.490;9.688;2022-11-24T05:21:00;11.90;;;1.20;;
45043;SDS011;30784;48.490;9.688;2022-11-24T05:23:25;8.48;;;1.40;;
45043;SDS011;30784;48.490;9.688;2022-11-24T05:25:51;8.90;;;1.40;;
45043;SDS011;30784;48.490;9.688;2022-11-24T05:28:17;15.85;;;1.20;;
45043;SDS011;30784;48.490;9.688;2022-11-24T05:30:43;15.88;;;1.50;;
45043;SDS011;30784;48.490;9.688;2022-11-24T05:33:13;37.08;;;1.67;;
45043;SDS011;30784;48.490;9.688;2022-11-24T05:35:48;26.83;;;2.15;;
45043;SDS011;30784;48.490;9.688;2022-11-24T05:38:15;20.75;;;1.65;;
45043;SDS011;30784;48.490;9.688;2022-11-24T05:40:41;12.55;;;1.58;;
45043;SDS011;30784;48.490;9.688;2022-11-24T05:43:11;8.80;;;2.00;;
45043;SDS011;30784;48.490;9.688;2022-11-24T05:45:41;15.77;;;2.63;;
45043;SDS011;30784;48.490;9.688;2022-11-24T05:48:09;18.55;;;2.78;;
45043;SDS011;30784;48.490;9.688;2022-11-24T05:50:36;9.32;;;3.15;;
45043;SDS011;30784;48.490;9.688;2022-11-24T05:53:03;12.27;;;3.03;;
45043;SDS011;30784;48.490;9.688;2022-11-24T05:55:34;12.30;;;3.30;;
45043;SDS011;30784;48.490;9.688;2022-11-24T05:58:00;8.10;;;3.17;;
45043;SDS011;30784;48.490;9.688;2022-11-24T06:00:28;8.27;;;3.15;;
45043;SDS011;30784;48.490;9.688;2022-11-24T06:02:55;10.30;;;2.60;;
45043;SDS011;30784;48.490;9.688;2022-11-24T06:05:21;6.57;;;2.10;;
45043;SDS011;30784;48.490;9.688;2022-11-24T06:07:47;8.13;;;1.80;;
45043;SDS011;30784;48.490;9.688;2022-11-24T06:10:13;7.53;;;1.90;;
45043;SDS011;30784;48.490;9.688;2022-11-24T06:12:40;6.70;;;1.95;;
45043;SDS011;30784;48.490;9.688;2022-11-24T06:15:06;5.45;;;1.80;;
45043;SDS011;30784;48.490;9.688;2022-11-24T06:17:31;8.98;;;1.77;;
45043;SDS011;30784;48.490;9.688;2022-11-24T06:19:57;6.00;;;1.90;;
45043;SDS011;30784;48.490;9.688;2022-11-24T06:22:23;9.00;;;2.15;;
45043;SDS011;30784;48.490;9.688;2022-11-24T06:24:48;7.70;;;1.80;;
45043;SDS011;30784;48.490;9.688;2022-11-24T06:27:15;7.90;;;1.58;;
45043;SDS011;30784;48.490;9.688;2022-11-24T06:29:40;7.50;;;1.40;;
45043;SDS011;30784;48.490;9.688;2022-11-24T06:32:06;8.43;;;2.05;;
45043;SDS011;30784;48.490;9.688;2022-11-24T06:34:32;8.07;;;1.70;;
45043;SDS011;30784;48.490;9.688;2022-11-24T06:36:58;7.97;;;1.92;;
45043;SDS011;30784;48.490;9.688;2022-11-24T06:39:23;8.50;;;2.08;;
45043;SDS011;30784;48.490;9.688;2022-11-24T06:41:49;9.50;;;1.83;;
45043;SDS011;30784;48.490;9.688;2022-11-24T06:44:15;7.13;;;1.80;;
45043;SDS011;30784;48.490;9.688;2022-11-24T06:46:41;7.40;;;1.52;;
45043;SDS011;30784;48.490;9.688;2022-11-24T06:49:07;9.02;;;1.80;;
45043;SDS011;30784;48.490;9.688;2022-11-24T06:51:32;7.10;;;1.50;;
45043;SDS011;30784;48.490;9.688;2022-11-24T06:53:58;12.07;;;2.00;;
45043;SDS011;30784;48.490;9.688;2022-11-24T06:56:24;8.73;;;1.73;;
45043;SDS011;30784;48.490;9.688;2022-11-24T06:58:50;10.90;;;2.30;;
45043;SDS011;30784;48.490;9.688;2022-11-24T07:01:17;12.88;;;2.13;;
45043;SDS011;30784;48.490;9.688;2022-11-24T07:03:48;7.13;;;1.67;;
45043;SDS011;30784;48.490;9.688;2022-11-24T07:06:15;9.70;;;1.90;;
45043;SDS011;30784;48.490;9.688;2022-11-24T07:08:41;9.13;;;1.73;;
45043;SDS011;30784;48.490;9.688;2022-11-24T07:11:07;9.93;;;2.10;;
45043;SDS011;30784;48.490;9.688;2022-11-24T07:13:35;12.50;;;2.47;;
45043;SDS011;30784;48.490;9.688;2022-11-24T07:16:19;10.05;;;2.30;;
45043;SDS011;30784;48.490;9.688;2022-11-24T07:18:47;14.57;;;3.20;;
45043;SDS011;30784;48.490;9.688;2022-11-24T07:21:14;9.05;;;2.33;;
45043;SDS011;30784;48.490;9.688;2022-11-24T07:23:40;8.10;;;1.83;;
45043;SDS011;30784;48.490;9.688;2022-11-24T07:26:06;10.02;;;1.98;;
45043;SDS011;30784;48.490;9.688;2022-11-24T07:28:33;11.80;;;2.33;;
45043;SDS011;30784;48.490;9.688;2022-11-24T07:31:06;9.60;;;1.67;;
45043;SDS011;30784;48.490;9.688;2022-11-24T07:33:33;14.32;;;2.58;;
45043;SDS011;30784;48.490;9.688;2022-11-24T07:35:59;9.75;;;2.08;;
45043;SDS011;30784;48.490;9.688;2022-11-24T07:38:25;10.80;;;2.22;;
45043;SDS011;30784;48.490;9.688;2022-11-24T07:40:52;12.60;;;2.05;;
45043;SDS011;30784;48.490;9.688;2022-11-24T07:43:18;8.38;;;2.38;;
45043;SDS011;30784;48.490;9.688;2022-11-24T07:45:43;14.05;;;2.00;;
45043;SDS011;30784;48.490;9.688;2022-11-24T07:48:15;10.45;;;1.90;;
45043;SDS011;30784;48.490;9.688;2022-11-24T07:50:41;11.02;;;2.40;;
45043;SDS011;30784;48.490;9.688;2022-11-24T07:53:06;13.13;;;2.85;;
45043;SDS011;30784;48.490;9.688;2022-11-24T07:55:32;11.57;;;2.05;;
45043;SDS011;30784;48.490;9.688;2022-11-24T07:57:58;10.43;;;2.20;;
45043;SDS011;30784;48.490;9.688;2022-11-24T08:00:24;9.40;;;2.08;;
45043;SDS011;30784;48.490;9.688;2022-11-24T08:02:51;10.40;;;1.88;;
45043;SDS011;30784;48.490;9.688;2022-11-24T08:05:16;10.75;;;2.67;;
45043;SDS011;30784;48.490;9.688;2022-11-24T08:07:42;10.98;;;2.22;;
45043;SDS011;30784;48.490;9.688;2022-11-24T08:10:08;7.10;;;1.75;;
45043;SDS011;30784;48.490;9.688;2022-11-24T08:12:33;9.60;;;1.75;;
45043;SDS011;30784;48.490;9.688;2022-11-24T08:14:59;11.48;;;2.00;;
45043;SDS011;30784;48.490;9.688;2022-11-24T08:17:24;10.52;;;1.77;;
45043;SDS011;30784;48.490;9.688;2022-11-24T08:19:51;8.10;;;1.80;;
45043;SDS011;30784;48.490;9.688;2022-11-24T08:22:17;8.65;;;1.80;;
45043;SDS011;30784;48.490;9.688;2022-11-24T08:24:42;10.95;;;2.10;;
45043;SDS011;30784;48.490;9.688;2022-11-24T08:27:12;7.38;;;1.50;;
45043;SDS011;30784;48.490;9.688;2022-11-24T08:29:37;9.25;;;1.50;;
45043;SDS011;30784;48.490;9.688;2022-11-24T08:32:03;7.43;;;1.50;;
45043;SDS011;30784;48.490;9.688;2022-11-24T08:34:29;7.45;;;1.40;;
45043;SDS011;30784;48.490;9.688;2022-11-24T08:36:54;7.35;;;1.45;;
45043;SDS011;30784;48.490;9.688;2022-11-24T08:39:20;9.68;;;1.63;;
45043;SDS011;30784;48.490;9.688;2022-11-24T08:41:46;10.10;;;2.17;;
45043;SDS011;30784;48.490;9.688;2022-11-24T08:44:11;8.80;;;1.77;;
45043;SDS011;30784;48.490;9.688;2022-11-24T08:46:39;7.97;;;1.45;;
45043;SDS011;30784;48.490;9.688;2022-11-24T08:49:05;7.47;;;1.45;;
45043;SDS011;30784;48.490;9.688;2022-11-24T08:51:31;8.52;;;1.70;;
45043;SDS011;30784;48.490;9.688;2022-11-24T08:53:57;8.52;;;1.40;;
45043;SDS011;30784;48.490;9.688;2022-11-24T08:56:25;6.35;;;1.10;;
45043;SDS011;30784;48.490;9.688;2022-11-24T08:58:52;5.25;;;1.25;;
45043;SDS011;30784;48.490;9.688;2022-11-24T09:01:18;7.38;;;1.30;;
45043;SDS011;30784;48.490;9.688;2022-11-24T09:03:45;6.88;;;1.27;;
45043;SDS011;30784;48.490;9.688;2022-11-24T09:06:12;6.53;;;1.10;;
45043;SDS011;30784;48.490;9.688;2022-11-24T09:08:38;7.78;;;1.50;;
45043;SDS011;30784;48.490;9.688;2022-11-24T09:11:05;5.40;;;1.00;;
45043;SDS011;30784;48.490;9.688;2022-11-24T09:13:32;6.30;;;1.23;;
45043;SDS011;30784;48.490;9.688;2022-11-24T09:16:17;7.68;;;1.30;;
45043;SDS011;30784;48.490;9.688;2022-11-24T09:18:45;5.32;;;1.27;;
45043;SDS011;30784;48.490;9.688;2022-11-24T09:21:12;6.43;;;1.52;;
45043;SDS011;30784;48.490;9.688;2022-11-24T09:23:43;5.57;;;1.05;;
45043;SDS011;30784;48.490;9.688;2022-11-24T09:26:12;6.60;;;1.10;;
45043;SDS011;30784;48.490;9.688;2022-11-24T09:28:42;6.20;;;0.95;;
45043;SDS011;30784;48.490;9.688;2022-11-24T09:31:09;6.05;;;1.23;;
45043;SDS011;30784;48.490;9.688;2022-11-24T09:33:36;5.10;;;0.85;;
45043;SDS011;30784;48.490;9.688;2022-11-24T09:36:03;4.80;;;1.10;;
45043;SDS011;30784;48.490;9.688;2022-11-24T09:38:30;3.78;;;0.93;;
45043;SDS011;30784;48.490;9.688;2022-11-24T09:41:02;3.38;;;0.90;;
45043;SDS011;30784;48.490;9.688;2022-11-24T09:43:53;4.95;;;0.75;;
45043;SDS011;30784;48.490;9.688;2022-11-24T09:46:35;4.68;;;0.90;;
45043;SDS011;30784;48.490;9.688;2022-11-24T09:49:20;3.85;;;1.15;;
45043;SDS011;30784;48.490;9.688;2022-11-24T09:51:55;4.07;;;1.08;;
45043;SDS011;30784;48.490;9.688;2022-11-24T09:54:23;3.25;;;0.77;;
45043;SDS011;30784;48.490;9.688;2022-11-24T09:56:52;5.45;;;1.10;;
45043;SDS011;30784;48.490;9.688;2022-11-24T09:59:22;3.90;;;0.70;;
45043;SDS011;30784;48.490;9.688;2022-11-24T10:01:49;5.95;;;1.90;;
45043;SDS011;30784;48.490;9.688;2022-11-24T10:04:17;4.85;;;1.10;;
45043;SDS011;30784;48.490;9.688;2022-11-24T10:06:51;4.70;;;1.08;;
45043;SDS011;30784;48.490;9.688;2022-11-24T10:12:22;5.47;;;1.00;;
45043;SDS011;30784;48.490;9.688;2022-11-24T10:17:21;3.65;;;0.90;;
45043;SDS011;30784;48.490;9.688;2022-11-24T10:22:50;2.92;;;0.82;;
45043;SDS011;30784;48.490;9.688;2022-11-24T10:25:35;4.72;;;0.90;;
45043;SDS011;30784;48.490;9.688;2022-11-24T10:28:12;3.03;;;0.40;;
45043;SDS011;30784;48.490;9.688;2022-11-24T10:30:39;3.17;;;0.43;;
45043;SDS011;30784;48.490;9.688;2022-11-24T10:35:52;2.97;;;0.50;;
45043;SDS011;30784;48.490;9.688;2022-11-24T10:38:38;2.17;;;0.52;;
45043;SDS011;30784;48.490;9.688;2022-11-24T10:41:13;3.35;;;0.88;;
45043;SDS011;30784;48.490;9.688;2022-11-24T10:43:48;2.80;;;0.70;;
45043;SDS011;30784;48.490;9.688;2022-11-24T10:46:23;2.00;;;0.50;;
45043;SDS011;30784;48.490;9.688;2022-11-24T10:49:01;2.40;;;0.60;;
45043;SDS011;30784;48.490;9.688;2022-11-24T10:54:09;4.05;;;0.80;;
45043;SDS011;30784;48.490;9.688;2022-11-24T10:56:45;3.28;;;0.80;;
45043;SDS011;30784;48.490;9.688;2022-11-24T11:01:53;2.45;;;0.40;;
45043;SDS011;30784;48.490;9.688;2022-11-24T11:04:29;0.90;;;0.30;;
45043;SDS011;30784;48.490;9.688;2022-11-24T11:09:42;2.80;;;0.40;;
45043;SDS011;30784;48.490;9.688;2022-11-24T11:12:10;3.58;;;0.50;;
45043;SDS011;30784;48.490;9.688;2022-11-24T11:14:42;2.72;;;0.50;;
45043;SDS011;30784;48.490;9.688;2022-11-24T11:20:02;1.40;;;0.28;;
45043;SDS011;30784;48.490;9.688;2022-11-24T11:22:31;2.50;;;0.47;;
45043;SDS011;30784;48.490;9.688;2022-11-24T11:27:29;2.55;;;0.50;;
45043;SDS011;30784;48.490;9.688;2022-11-24T11:29:54;4.57;;;0.50;;
45043;SDS011;30784;48.490;9.688;2022-11-24T11:32:51;5.80;;;0.80;;
45043;SDS011;30784;48.490;9.688;2022-11-24T11:35:17;3.95;;;0.75;;
45043;SDS011;30784;48.490;9.688;2022-11-24T11:37:43;3.47;;;0.70;;
45043;SDS011;30784;48.490;9.688;2022-11-24T11:40:14;4.43;;;0.68;;
45043;SDS011;30784;48.490;9.688;2022-11-24T11:42:48;3.90;;;0.80;;
45043;SDS011;30784;48.490;9.688;2022-11-24T11:45:49;3.83;;;0.77;;
45043;SDS011;30784;48.490;9.688;2022-11-24T11:48:25;3.47;;;0.88;;
45043;SDS011;30784;48.490;9.688;2022-11-24T11:54:24;7.72;;;1.40;;
45043;SDS011;30784;48.490;9.688;2022-11-24T11:56:59;8.32;;;1.67;;
45043;SDS011;30784;48.490;9.688;2022-11-24T12:05:17;5.88;;;0.98;;
45043;SDS011;30784;48.490;9.688;2022-11-24T12:21:50;6.18;;;0.88;;
45043;SDS011;30784;48.490;9.688;2022-11-24T12:24:35;4.30;;;0.85;;
45043;SDS011;30784;48.490;9.688;2022-11-24T12:27:04;3.22;;;0.77;;
45043;SDS011;30784;48.490;9.688;2022-11-24T12:29:52;5.45;;;0.70;;
45043;SDS011;30784;48.490;9.688;2022-11-24T12:32:37;4.72;;;0.85;;
45043;SDS011;30784;48.490;9.688;2022-11-24T12:38:14;6.25;;;1.17;;
45043;SDS011;30784;48.490;9.688;2022-11-24T12:44:10;5.63;;;0.80;;
45043;SDS011;30784;48.490;9.688;2022-11-24T12:49:56;4.63;;;1.00;;
45043;SDS011;30784;48.490;9.688;2022-11-24T12:52:30;6.63;;;1.02;;
45043;SDS011;30784;48.490;9.688;2022-11-24T12:55:01;7.57;;;1.25;;
45043;SDS011;30784;48.490;9.688;2022-11-24T13:00:15;6.18;;;0.90;;
45043;SDS011;30784;48.490;9.688;2022-11-24T13:08:07;7.47;;;1.05;;
45043;SDS011;30784;48.490;9.688;2022-11-24T13:10:34;7.07;;;1.52;;
45043;SDS011;30784;48.490;9.688;2022-11-24T13:13:05;7.38;;;1.70;;
45043;SDS011;30784;48.490;9.688;2022-11-24T13:23:57;6.28;;;1.30;;
45043;SDS011;30784;48.490;9.688;2022-11-24T13:32:43;5.20;;;0.90;;
45043;SDS011;30784;48.490;9.688;2022-11-24T13:39:56;5.35;;;1.02;;
45043;SDS011;30784;48.490;9.688;2022-11-24T13:42:26;5.80;;;1.08;;
45043;SDS011;30784;48.490;9.688;2022-11-24T13:47:36;6.03;;;1.30;;
45043;SDS011;30784;48.490;9.688;2022-11-24T13:50:03;6.63;;;1.50;;
45043;SDS011;30784;48.490;9.688;2022-11-24T13:55:19;5.75;;;0.90;;
45043;SDS011;30784;48.490;9.688;2022-11-24T13:57:51;6.47;;;1.13;;
45043;SDS011;30784;48.490;9.688;2022-11-24T14:00:24;5.18;;;1.05;;
45043;SDS011;30784;48.490;9.688;2022-11-24T14:02:54;3.78;;;0.80;;
45043;SDS011;30784;48.490;9.688;2022-11-24T14:05:57;5.60;;;1.00;;
45043;SDS011;30784;48.490;9.688;2022-11-24T14:08:17;6.40;;;1.20;;
45043;SDS011;30784;48.490;9.688;2022-11-24T14:10:48;6.82;;;1.23;;
45043;SDS011;30784;48.490;9.688;2022-11-24T14:18:38;6.72;;;1.50;;
45043;SDS011;30784;48.490;9.688;2022-11-24T14:23:49;7.38;;;1.40;;
45043;SDS011;30784;48.490;9.688;2022-11-24T14:26:36;7.20;;;1.80;;
45043;SDS011;30784;48.490;9.688;2022-11-24T14:29:11;6.63;;;1.60;;
45043;SDS011;30784;48.490;9.688;2022-11-24T14:31:40;4.45;;;1.20;;
45043;SDS011;30784;48.490;9.688;2022-11-24T14:36:35;6.88;;;1.10;;
45043;SDS011;30784;48.490;9.688;2022-11-24T14:39:01;6.93;;;1.65;;
45043;SDS011;30784;48.490;9.688;2022-11-24T14:41:26;4.70;;;1.00;;
45043;SDS011;30784;48.490;9.688;2022-11-24T14:44:02;6.90;;;1.00;;
45043;SDS011;30784;48.490;9.688;2022-11-24T14:46:30;5.13;;;1.15;;
45043;SDS011;30784;48.490;9.688;2022-11-24T14:48:56;6.47;;;1.35;;
45043;SDS011;30784;48.490;9.688;2022-11-24T14:51:23;10.65;;;1.27;;
45043;SDS011;30784;48.490;9.688;2022-11-24T14:53:51;7.93;;;1.30;;
45043;SDS011;30784;48.490;9.688;2022-11-24T14:59:02;5.47;;;1.15;;
45043;SDS011;30784;48.490;9.688;2022-11-24T15:01:43;7.82;;;1.80;;
45043;SDS011;30784;48.490;9.688;2022-11-24T15:06:35;7.85;;;1.80;;
45043;SDS011;30784;48.490;9.688;2022-11-24T15:09:00;10.90;;;2.83;;
45043;SDS011;30784;48.490;9.688;2022-11-24T15:11:28;11.38;;;2.47;;
45043;SDS011;30784;48.490;9.688;2022-11-24T15:13:55;9.70;;;2.63;;
45043;SDS011;30784;48.490;9.688;2022-11-24T15:16:21;10.55;;;2.40;;
45043;SDS011;30784;48.490;9.688;2022-11-24T15:18:55;11.65;;;2.50;;
45043;SDS011;30784;48.490;9.688;2022-11-24T15:21:35;8.35;;;1.98;;
45043;SDS011;30784;48.490;9.688;2022-11-24T15:24:16;8.65;;;1.88;;
45043;SDS011;30784;48.490;9.688;2022-11-24T15:26:43;6.32;;;1.50;;
45043;SDS011;30784;48.490;9.688;2022-11-24T15:29:10;5.78;;;1.55;;
45043;SDS011;30784;48.490;9.688;2022-11-24T15:31:39;6.45;;;1.65;;
45043;SDS011;30784;48.490;9.688;2022-11-24T15:34:05;6.93;;;1.60;;
45043;SDS011;30784;48.490;9.688;2022-11-24T15:36:33;8.75;;;1.60;;
45043;SDS011;30784;48.490;9.688;2022-11-24T15:38:59;7.80;;;2.05;;
45043;SDS011;30784;48.490;9.688;2022-11-24T15:41:27;6.50;;;1.60;;
45043;SDS011;30784;48.490;9.688;2022-11-24T15:43:54;6.47;;;1.67;;
45043;SDS011;30784;48.490;9.688;2022-11-24T15:46:23;6.50;;;2.10;;
45043;SDS011;30784;48.490;9.688;2022-11-24T15:48:50;8.57;;;2.20;;
45043;SDS011;30784;48.490;9.688;2022-11-24T15:51:17;8.07;;;2.20;;
45043;SDS011;30784;48.490;9.688;2022-11-24T15:53:44;9.77;;;2.70;;
45043;SDS011;30784;48.490;9.688;2022-11-24T15:58:43;9.30;;;3.15;;
45043;SDS011;30784;48.490;9.688;2022-11-24T16:01:08;11.13;;;3.33;;
45043;SDS011;30784;48.490;9.688;2022-11-24T16:03:34;11.98;;;5.00;;
45043;SDS011;30784;48.490;9.688;2022-11-24T16:05:59;15.57;;;5.72;;
45043;SDS011;30784;48.490;9.688;2022-11-24T16:08:25;12.15;;;5.25;;
45043;SDS011;30784;48.490;9.688;2022-11-24T16:10:51;12.65;;;4.72;;
45043;SDS011;30784;48.490;9.688;2022-11-24T16:13:17;11.05;;;4.10;;
45043;SDS011;30784;48.490;9.688;2022-11-24T16:15:44;10.25;;;4.03;;
45043;SDS011;30784;48.490;9.688;2022-11-24T16:20:39;12.05;;;4.78;;
45043;SDS011;30784;48.490;9.688;2022-11-24T16:23:08;11.45;;;4.30;;
45043;SDS011;30784;48.490;9.688;2022-11-24T16:25:33;14.32;;;7.40;;
45043;SDS011;30784;48.490;9.688;2022-11-24T16:27:59;14.32;;;6.90;;
45043;SDS011;30784;48.490;9.688;2022-11-24T16:30:25;16.20;;;9.13;;
45043;SDS011;30784;48.490;9.688;2022-11-24T16:32:50;20.23;;;9.98;;
45043;SDS011;30784;48.490;9.688;2022-11-24T16:35:16;18.38;;;7.63;;
45043;SDS011;30784;48.490;9.688;2022-11-24T16:37:42;16.65;;;6.57;;
45043;SDS011;30784;48.490;9.688;2022-11-24T16:40:09;14.98;;;6.07;;
45043;SDS011;30784;48.490;9.688;2022-11-24T16:42:34;21.90;;;9.95;;
45043;SDS011;30784;48.490;9.688;2022-11-24T16:45:00;15.30;;;6.50;;
45043;SDS011;30784;48.490;9.688;2022-11-24T16:47:27;13.05;;;4.78;;
45043;SDS011;30784;48.490;9.688;2022-11-24T16:49:52;9.75;;;3.03;;